Time;durP1;ratioP1;P1;durP2;ratioP2;P2;SDS_P1;SDS_P2;PMS_P1;PMS_P2;Temp;Humidity;BMP_temperature;BMP_pressure;BME280_temperature;BME280_humidity;BME280_pressure;Samples;Min_cycle;Max_cycle;Signal;HPM_P1;HPM_P2
2022/03/07 00:01:05;;;;;;;8.60;7.80;;;4.40;42.20;;;;;;5014482;28;20676;-90
2022/03/07 00:03:31;;;;;;;9.57;8.20;;;4.40;40.90;;;;;;5014137;28;20203;-88
2022/03/07 00:05:57;;;;;;;9.53;8.63;;;4.30;41.30;;;;;;5007629;28;20190;-89
2022/03/07 00:08:23;;;;;;;9.10;8.20;;;4.30;41.30;;;;;;5014067;28;20221;-88
2022/03/07 00:10:49;;;;;;;9.20;8.30;;;4.30;41.30;;;;;;5009906;28;20311;-89
2022/03/07 00:13:15;;;;;;;9.07;8.27;;;4.20;41.60;;;;;;5007847;28;20225;-89
2022/03/07 00:15:40;;;;;;;9.40;8.47;;;4.20;41.70;;;;;;5014792;28;20193;-89
2022/03/07 00:18:06;;;;;;;9.33;8.53;;;4.20;42.00;;;;;;5016006;28;20235;-89
2022/03/07 00:20:32;;;;;;;8.87;8.07;;;4.10;41.70;;;;;;5023971;28;20216;-89
2022/03/07 00:22:58;;;;;;;7.93;7.23;;;4.10;41.70;;;;;;5013367;28;20201;-89
2022/03/07 00:25:24;;;;;;;9.50;8.70;;;4.10;42.10;;;;;;5013736;28;20680;-89
2022/03/07 00:27:50;;;;;;;8.37;7.67;;;4.20;41.60;;;;;;5014672;28;20352;-89
2022/03/07 00:30:17;;;;;;;8.40;7.60;;;4.30;41.20;;;;;;5012154;28;20224;-89
2022/03/07 00:32:43;;;;;;;9.50;8.53;;;4.20;41.50;;;;;;5014202;28;20739;-88
2022/03/07 00:35:10;;;;;;;8.57;7.80;;;4.20;41.30;;;;;;5016803;28;20277;-89
2022/03/07 00:37:36;;;;;;;9.47;8.60;;;4.20;41.80;;;;;;5008580;28;20212;-89
2022/03/07 00:40:03;;;;;;;9.27;8.33;;;4.20;41.80;;;;;;5008334;28;20214;-89
2022/03/07 00:42:28;;;;;;;8.90;8.20;;;4.10;42.50;;;;;;5011367;28;20190;-89
2022/03/07 00:44:54;;;;;;;8.40;7.70;;;4.10;41.90;;;;;;5006782;28;20301;-89
2022/03/07 00:47:19;;;;;;;8.47;7.67;;;4.10;42.00;;;;;;5015336;28;20238;-89
2022/03/07 00:49:45;;;;;;;8.87;8.03;;;4.00;43.10;;;;;;5014941;28;20217;-89
2022/03/07 00:52:11;;;;;;;8.43;7.63;;;4.10;42.50;;;;;;5008383;28;20193;-89
2022/03/07 00:54:37;;;;;;;9.17;8.27;;;4.10;43.10;;;;;;5019518;28;20213;-89
2022/03/07 00:57:02;;;;;;;8.23;7.47;;;4.00;42.30;;;;;;5017061;28;20193;-88
2022/03/07 00:59:28;;;;;;;8.37;7.53;;;4.00;43.20;;;;;;5011554;28;20202;-88
2022/03/07 01:01:54;;;;;;;8.10;7.30;;;4.10;42.80;;;;;;5013289;28;20182;-89
2022/03/07 01:04:19;;;;;;;8.40;7.60;;;4.10;43.40;;;;;;5017187;28;20615;-90
2022/03/07 01:06:45;;;;;;;8.40;7.60;;;4.10;43.00;;;;;;5013236;28;20208;-89
2022/03/07 01:09:11;;;;;;;9.30;8.07;;;4.20;42.80;;;;;;5016801;28;20313;-89
2022/03/07 01:11:37;;;;;;;8.90;8.10;;;4.10;42.80;;;;;;5017236;28;20280;-88
2022/03/07 01:14:03;;;;;;;9.00;8.10;;;4.20;42.80;;;;;;5002926;28;20216;-89
2022/03/07 01:16:28;;;;;;;8.63;7.60;;;4.00;43.20;;;;;;5020095;28;21196;-88
2022/03/07 01:18:54;;;;;;;8.67;7.83;;;4.00;43.60;;;;;;5017641;28;20185;-91
2022/03/07 01:21:19;;;;;;;8.30;7.57;;;4.00;44.30;;;;;;5014580;28;20222;-89
2022/03/07 01:23:45;;;;;;;8.20;7.50;;;4.00;43.50;;;;;;5010515;28;20210;-90
2022/03/07 01:26:11;;;;;;;9.30;8.40;;;4.10;44.40;;;;;;5015240;28;20235;-89
2022/03/07 01:28:36;;;;;;;9.53;8.50;;;4.20;43.10;;;;;;5017777;28;20198;-89
2022/03/07 01:31:02;;;;;;;8.67;7.87;;;4.00;43.10;;;;;;5013175;28;20213;-88
2022/03/07 01:33:28;;;;;;;8.50;7.60;;;3.90;43.80;;;;;;5038195;28;20224;-89
2022/03/07 01:35:53;;;;;;;8.40;7.60;;;4.00;44.00;;;;;;5016303;28;20197;-89
2022/03/07 01:38:19;;;;;;;8.87;7.97;;;4.00;43.30;;;;;;5016709;28;20284;-89
2022/03/07 01:40:45;;;;;;;8.77;7.97;;;3.90;43.70;;;;;;5010740;28;20221;-89
2022/03/07 01:43:11;;;;;;;8.77;7.53;;;4.00;43.90;;;;;;5008150;28;20194;-89
2022/03/07 01:45:40;;;;;;;8.63;7.73;;;3.90;44.30;;;;;;5016254;28;20232;-89
2022/03/07 01:48:06;;;;;;;8.00;7.20;;;3.80;44.10;;;;;;5010348;28;20189;-89
2022/03/07 01:50:31;;;;;;;8.90;7.93;;;3.90;44.90;;;;;;5015893;28;20241;-89
2022/03/07 01:52:57;;;;;;;8.47;7.67;;;4.00;44.40;;;;;;5031315;28;20228;-89
2022/03/07 01:55:23;;;;;;;8.70;7.87;;;4.00;44.30;;;;;;5011973;28;20197;-90
2022/03/07 01:57:49;;;;;;;8.57;7.77;;;4.10;44.40;;;;;;5013114;28;20767;-89
2022/03/07 02:00:19;;;;;;;8.03;7.33;;;3.90;44.30;;;;;;5014385;28;20244;-89
2022/03/07 02:02:45;;;;;;;8.10;7.40;;;3.90;45.00;;;;;;5016874;28;20599;-89
2022/03/07 02:05:12;;;;;;;7.87;7.07;;;3.80;45.10;;;;;;5006276;28;20295;-88
2022/03/07 02:07:38;;;;;;;7.73;6.93;;;3.70;45.50;;;;;;5016013;28;20193;-89
2022/03/07 02:10:05;;;;;;;8.60;7.80;;;3.60;45.40;;;;;;5016606;28;20221;-89
2022/03/07 02:12:30;;;;;;;7.47;6.73;;;3.60;45.80;;;;;;5017618;28;20202;-89
2022/03/07 02:14:56;;;;;;;8.03;7.23;;;3.60;46.60;;;;;;5015874;28;20239;-89
2022/03/07 02:17:22;;;;;;;7.90;7.10;;;3.50;46.10;;;;;;4996824;28;20700;-89
2022/03/07 02:19:48;;;;;;;8.83;7.93;;;3.50;46.30;;;;;;5015229;28;20213;-89
2022/03/07 02:22:16;;;;;;;7.10;6.50;;;3.40;46.30;;;;;;5016247;28;20275;-89
2022/03/07 02:24:43;;;;;;;8.80;7.90;;;3.30;46.50;;;;;;5019524;28;20201;-89
2022/03/07 02:27:11;;;;;;;8.07;7.27;;;3.30;46.90;;;;;;5021432;28;20540;-89
2022/03/07 02:29:37;;;;;;;8.07;7.27;;;3.30;46.50;;;;;;5014186;28;20205;-89
2022/03/07 02:32:05;;;;;;;7.53;6.83;;;3.20;47.10;;;;;;5012641;28;20193;-89
2022/03/07 02:34:31;;;;;;;8.27;7.47;;;3.20;47.10;;;;;;5021629;28;20225;-88
2022/03/07 02:36:57;;;;;;;7.50;6.80;;;3.20;47.00;;;;;;5031782;28;20198;-89
2022/03/07 02:39:23;;;;;;;7.87;7.07;;;3.30;48.50;;;;;;5033804;28;20257;-88
2022/03/07 02:41:49;;;;;;;7.97;7.27;;;3.30;48.00;;;;;;5049347;28;20209;-88
2022/03/07 02:44:15;;;;;;;7.53;6.83;;;3.30;46.80;;;;;;5020526;28;20209;-89
2022/03/07 02:46:41;;;;;;;8.53;7.23;;;3.10;47.50;;;;;;5021557;28;20201;-90
2022/03/07 02:49:07;;;;;;;7.43;6.73;;;3.10;47.80;;;;;;5020865;28;20298;-88
2022/03/07 02:51:33;;;;;;;9.53;7.40;;;3.30;47.80;;;;;;5020925;28;20221;-89
2022/03/07 02:53:59;;;;;;;8.33;7.30;;;3.20;46.90;;;;;;5018411;28;20213;-88
2022/03/07 02:56:25;;;;;;;8.23;7.40;;;3.10;48.10;;;;;;5018265;28;20198;-88
2022/03/07 02:58:51;;;;;;;7.33;6.63;;;3.10;47.70;;;;;;5019218;28;20287;-88
2022/03/07 03:01:17;;;;;;;7.60;6.90;;;3.10;48.20;;;;;;5020540;28;20217;-88
2022/03/07 03:03:42;;;;;;;7.47;6.77;;;3.10;47.70;;;;;;5013584;28;20194;-89
2022/03/07 03:06:09;;;;;;;7.67;6.90;;;3.00;48.40;;;;;;5020878;28;20201;-89
2022/03/07 03:08:35;;;;;;;7.20;6.60;;;3.10;48.40;;;;;;5020931;28;20253;-89
2022/03/07 03:11:01;;;;;;;7.50;6.80;;;3.10;48.50;;;;;;5014724;28;20248;-88
2022/03/07 03:13:27;;;;;;;8.20;7.40;;;3.10;47.50;;;;;;5017684;28;20244;-88
2022/03/07 03:15:55;;;;;;;8.17;7.43;;;3.10;47.50;;;;;;5020191;28;20705;-88
2022/03/07 03:18:21;;;;;;;7.70;7.00;;;3.00;46.70;;;;;;5017880;28;20190;-89
2022/03/07 03:20:50;;;;;;;8.10;7.30;;;2.90;47.40;;;;;;5015576;28;20217;-89
2022/03/07 03:23:17;;;;;;;8.10;7.40;;;3.00;46.70;;;;;;5020644;28;20251;-89
2022/03/07 03:25:43;;;;;;;8.57;7.67;;;2.70;46.70;;;;;;5019574;28;20185;-88
2022/03/07 03:28:09;;;;;;;7.20;6.60;;;2.60;47.90;;;;;;5019836;28;20197;-88
2022/03/07 03:30:35;;;;;;;8.23;7.43;;;2.60;47.40;;;;;;5021536;28;20231;-88
2022/03/07 03:33:01;;;;;;;7.73;6.93;;;2.70;47.70;;;;;;5024994;28;20213;-88
2022/03/07 03:35:27;;;;;;;8.27;7.57;;;2.70;46.70;;;;;;5018090;28;20189;-89
2022/03/07 03:37:54;;;;;;;8.60;7.77;;;2.60;46.80;;;;;;5019449;28;20210;-88
2022/03/07 03:40:19;;;;;;;7.87;7.17;;;2.60;47.10;;;;;;5012659;28;20577;-88
2022/03/07 03:42:46;;;;;;;8.07;7.37;;;2.50;47.40;;;;;;5018327;28;20732;-90
2022/03/07 03:45:13;;;;;;;8.90;8.00;;;2.40;47.50;;;;;;5017734;28;20220;-88
2022/03/07 03:47:40;;;;;;;8.70;7.80;;;2.30;47.70;;;;;;5024812;28;20255;-88
2022/03/07 03:50:09;;;;;;;8.83;7.93;;;2.20;48.20;;;;;;5035995;28;20284;-88
2022/03/07 03:52:35;;;;;;;8.43;7.53;;;2.10;48.00;;;;;;5020543;28;20189;-88
2022/03/07 03:55:02;;;;;;;8.63;7.20;;;1.90;48.80;;;;;;5017358;28;20200;-89
2022/03/07 03:57:29;;;;;;;8.97;8.17;;;2.00;48.80;;;;;;5013922;28;20201;-89
2022/03/07 03:59:55;;;;;;;8.53;7.73;;;1.90;49.00;;;;;;5021032;28;20210;-88
2022/03/07 04:02:21;;;;;;;8.33;7.63;;;1.90;49.30;;;;;;5019518;28;20201;-89
2022/03/07 04:04:47;;;;;;;8.30;7.50;;;1.90;49.40;;;;;;5020845;28;20193;-89
2022/03/07 04:07:12;;;;;;;8.73;7.83;;;1.80;50.40;;;;;;5018256;28;20276;-89
2022/03/07 04:09:38;;;;;;;8.37;7.60;;;1.80;50.40;;;;;;4995103;28;20236;-89
2022/03/07 04:12:05;;;;;;;8.70;7.90;;;1.70;51.30;;;;;;5007785;28;20194;-88
2022/03/07 04:14:30;;;;;;;8.63;7.73;;;1.70;51.10;;;;;;5004319;28;20228;-88
2022/03/07 04:16:56;;;;;;;7.83;7.10;;;1.70;51.60;;;;;;5013283;28;20201;-89
2022/03/07 04:19:22;;;;;;;9.10;8.20;;;1.70;52.10;;;;;;4995517;28;20201;-88
2022/03/07 04:21:47;;;;;;;8.77;7.97;;;1.60;52.30;;;;;;4996610;28;20221;-88
2022/03/07 04:24:14;;;;;;;9.00;8.17;;;1.60;52.70;;;;;;5012110;28;20220;-88
2022/03/07 04:26:41;;;;;;;8.33;7.53;;;1.50;53.40;;;;;;5020475;28;20200;-88
2022/03/07 04:29:08;;;;;;;7.50;6.80;;;1.50;54.70;;;;;;5019559;28;20209;-88
2022/03/07 04:31:44;;;;;;;9.00;8.10;;;1.60;54.50;;;;;;5002953;28;20608;-88
2022/03/07 04:34:12;;;;;;;7.53;6.83;;;1.60;54.20;;;;;;5013840;28;20228;-88
2022/03/07 04:36:39;;;;;;;8.53;7.73;;;1.70;54.00;;;;;;5013031;28;20222;-88
2022/03/07 04:39:08;;;;;;;7.80;7.00;;;1.60;54.50;;;;;;5011731;28;20664;-89
2022/03/07 04:41:34;;;;;;;7.27;6.57;;;1.70;54.70;;;;;;5011715;28;20216;-88
2022/03/07 04:44:01;;;;;;;7.73;6.97;;;1.70;55.50;;;;;;5009538;28;20563;-88
2022/03/07 04:46:27;;;;;;;8.27;7.33;;;1.70;54.80;;;;;;5006843;28;20239;-88
2022/03/07 04:48:53;;;;;;;8.07;6.40;;;1.60;55.40;;;;;;5006211;28;20600;-89
2022/03/07 04:51:18;;;;;;;8.37;7.07;;;1.50;55.50;;;;;;5010860;28;20214;-88
2022/03/07 04:53:44;;;;;;;7.33;6.63;;;1.50;56.10;;;;;;5008154;28;20349;-89
2022/03/07 04:56:10;;;;;;;6.70;5.57;;;1.50;56.60;;;;;;5004529;28;20210;-89
2022/03/07 04:58:37;;;;;;;6.90;6.23;;;1.50;56.70;;;;;;5012343;28;20209;-89
2022/03/07 05:01:04;;;;;;;6.17;5.57;;;1.50;56.40;;;;;;4998181;28;20210;-89
2022/03/07 05:03:29;;;;;;;7.10;6.40;;;1.50;56.30;;;;;;5002191;28;20607;-89
2022/03/07 05:05:55;;;;;;;6.97;6.10;;;1.50;56.80;;;;;;5012300;28;20217;-89
2022/03/07 05:08:21;;;;;;;8.57;6.23;;;1.50;56.60;;;;;;5006962;28;20240;-89
2022/03/07 05:10:47;;;;;;;7.30;6.60;;;1.60;56.80;;;;;;5008212;28;20221;-89
2022/03/07 05:13:13;;;;;;;8.47;7.57;;;1.70;57.10;;;;;;5012657;28;20902;-89
2022/03/07 05:15:38;;;;;;;6.70;6.00;;;1.70;56.40;;;;;;5012239;28;20205;-89
2022/03/07 05:18:04;;;;;;;7.67;6.97;;;1.70;56.10;;;;;;5010331;28;20186;-88
2022/03/07 05:20:31;;;;;;;6.23;5.63;;;1.60;56.30;;;;;;5008165;28;20308;-89
2022/03/07 05:22:57;;;;;;;5.97;5.43;;;1.60;56.30;;;;;;5010726;28;20266;-89
2022/03/07 05:25:22;;;;;;;6.90;6.03;;;1.60;55.80;;;;;;5008384;28;20199;-89
2022/03/07 05:27:48;;;;;;;6.80;6.10;;;1.70;56.30;;;;;;5010433;28;20205;-89
2022/03/07 05:30:16;;;;;;;6.43;5.83;;;1.60;55.90;;;;;;5011778;28;20221;-89
2022/03/07 05:32:46;;;;;;;7.10;5.47;;;1.50;56.50;;;;;;5014427;28;20198;-89
2022/03/07 05:35:13;;;;;;;6.17;5.33;;;1.40;56.10;;;;;;5014570;28;20186;-89
2022/03/07 05:37:39;;;;;;;5.70;5.20;;;1.20;56.70;;;;;;5007308;28;20692;-89
2022/03/07 05:40:07;;;;;;;6.43;5.60;;;1.10;57.30;;;;;;5013311;28;20205;-89
2022/03/07 05:42:33;;;;;;;5.60;5.10;;;1.10;57.60;;;;;;5012217;28;20193;-89
2022/03/07 05:44:59;;;;;;;6.43;5.80;;;1.20;57.50;;;;;;5014839;28;20190;-89
2022/03/07 05:47:25;;;;;;;14.30;5.87;;;1.30;57.30;;;;;;5010180;28;20695;-89
2022/03/07 05:49:50;;;;;;;5.70;4.97;;;1.30;56.60;;;;;;5014685;28;20217;-89
2022/03/07 05:52:16;;;;;;;6.30;5.70;;;1.20;56.90;;;;;;4998705;28;20193;-89
2022/03/07 05:54:42;;;;;;;5.73;4.97;;;1.20;56.80;;;;;;5002438;28;20217;-89
2022/03/07 05:57:08;;;;;;;9.00;6.23;;;1.20;57.70;;;;;;5016184;28;20212;-90
2022/03/07 05:59:33;;;;;;;6.97;5.77;;;1.30;57.50;;;;;;5016451;28;20562;-89
2022/03/07 06:01:59;;;;;;;6.00;5.40;;;1.40;56.20;;;;;;5013485;28;20197;-89
2022/03/07 06:04:24;;;;;;;6.23;5.37;;;1.30;56.50;;;;;;5014463;28;20194;-89
2022/03/07 06:06:50;;;;;;;7.47;5.43;;;1.30;56.60;;;;;;5012414;28;20201;-89
2022/03/07 06:09:16;;;;;;;7.13;5.80;;;1.30;56.60;;;;;;5015683;28;20255;-88
2022/03/07 06:11:43;;;;;;;7.17;6.10;;;1.20;57.10;;;;;;5032531;28;20177;-88
2022/03/07 06:14:08;;;;;;;6.23;5.63;;;1.10;56.80;;;;;;5022373;28;20225;-89
2022/03/07 06:16:34;;;;;;;9.50;8.20;;;1.00;57.40;;;;;;5017225;28;20216;-88
2022/03/07 06:19:00;;;;;;;9.03;6.30;;;1.00;56.90;;;;;;5018504;28;20279;-88
2022/03/07 06:21:25;;;;;;;6.20;5.60;;;1.00;57.10;;;;;;5015673;28;20217;-88
2022/03/07 06:23:51;;;;;;;9.03;7.63;;;0.90;56.80;;;;;;5023391;28;20198;-89
2022/03/07 06:26:17;;;;;;;8.13;6.83;;;0.90;57.80;;;;;;5023756;28;20192;-88
2022/03/07 06:28:42;;;;;;;12.13;9.60;;;1.00;56.70;;;;;;5021727;28;20198;-89
2022/03/07 06:31:08;;;;;;;12.10;9.47;;;1.10;56.50;;;;;;5015886;28;20206;-88
2022/03/07 06:33:34;;;;;;;9.30;7.50;;;1.10;56.50;;;;;;5025738;28;20213;-89
2022/03/07 06:36:00;;;;;;;10.10;8.43;;;1.10;56.40;;;;;;5026515;28;20185;-89
2022/03/07 06:38:25;;;;;;;10.83;7.63;;;1.20;56.70;;;;;;5028778;28;20213;-89
2022/03/07 06:40:51;;;;;;;9.07;7.50;;;1.20;55.90;;;;;;5028897;28;20301;-89
2022/03/07 06:43:17;;;;;;;10.70;7.87;;;1.20;55.20;;;;;;5027267;28;20272;-89
2022/03/07 06:45:43;;;;;;;6.27;5.67;;;1.30;55.40;;;;;;5026272;28;20692;-88
2022/03/07 06:48:09;;;;;;;6.97;6.23;;;1.20;54.70;;;;;;5027151;28;20198;-88
2022/03/07 06:50:34;;;;;;;6.80;6.20;;;1.10;55.40;;;;;;5028636;28;20213;-89
2022/03/07 06:53:00;;;;;;;6.90;6.20;;;1.20;55.60;;;;;;5026612;28;20272;-89
2022/03/07 06:55:26;;;;;;;7.63;6.07;;;1.20;55.30;;;;;;5030569;28;20189;-89
2022/03/07 06:57:52;;;;;;;6.57;5.97;;;1.20;55.00;;;;;;5029045;28;20189;-89
2022/03/07 07:00:18;;;;;;;6.17;5.47;;;1.20;55.20;;;;;;5029450;28;20201;-89
2022/03/07 07:02:46;;;;;;;7.97;6.40;;;1.10;54.80;;;;;;5028147;28;20194;-87
2022/03/07 07:05:12;;;;;;;5.97;5.23;;;1.10;55.00;;;;;;5038199;28;20177;-88
2022/03/07 07:07:39;;;;;;;7.43;6.63;;;1.00;55.10;;;;;;5037648;28;20194;-88
2022/03/07 07:10:06;;;;;;;8.10;6.07;;;0.90;55.40;;;;;;5037135;28;20208;-88
2022/03/07 07:12:33;;;;;;;6.83;6.23;;;0.90;55.70;;;;;;5028023;28;20197;-88
2022/03/07 07:14:59;;;;;;;9.73;6.30;;;0.90;55.60;;;;;;5012192;28;20221;-88
2022/03/07 07:17:25;;;;;;;7.97;6.57;;;1.00;55.60;;;;;;5034054;28;20180;-88
2022/03/07 07:19:51;;;;;;;6.30;5.70;;;1.00;55.30;;;;;;4996976;28;20201;-88
2022/03/07 07:22:16;;;;;;;6.13;5.53;;;1.00;55.50;;;;;;5027597;28;20245;-88
2022/03/07 07:24:43;;;;;;;6.90;6.20;;;1.10;56.10;;;;;;5024910;28;20209;-88
2022/03/07 07:27:08;;;;;;;7.07;6.23;;;1.10;54.80;;;;;;5023749;28;20196;-88
2022/03/07 07:29:34;;;;;;;7.17;6.33;;;1.10;54.60;;;;;;5024853;28;20284;-88
2022/03/07 07:32:02;;;;;;;7.23;6.53;;;1.10;55.50;;;;;;5026713;28;20193;-89
2022/03/07 07:34:28;;;;;;;7.67;6.53;;;1.20;54.70;;;;;;5008530;28;20218;-89
2022/03/07 07:36:54;;;;;;;7.13;6.43;;;1.30;54.20;;;;;;5023949;28;20196;-89
2022/03/07 07:39:20;;;;;;;7.80;7.00;;;1.30;53.90;;;;;;5014202;28;20245;-89
2022/03/07 07:41:46;;;;;;;7.13;6.27;;;1.30;53.70;;;;;;5009668;28;20609;-89
2022/03/07 07:44:12;;;;;;;7.23;6.23;;;1.30;53.50;;;;;;5028226;28;20255;-88
2022/03/07 07:46:38;;;;;;;7.50;6.70;;;1.20;53.30;;;;;;5025483;28;20231;-88
2022/03/07 07:49:05;;;;;;;7.87;6.47;;;1.10;53.00;;;;;;5026484;28;20212;-89
2022/03/07 07:51:31;;;;;;;7.20;6.50;;;1.10;53.20;;;;;;5022648;28;20241;-88
2022/03/07 07:53:57;;;;;;;7.00;6.27;;;1.10;53.00;;;;;;5029320;28;20213;-88
2022/03/07 07:56:22;;;;;;;9.23;6.93;;;1.20;52.90;;;;;;5021397;28;20195;-87
2022/03/07 07:58:49;;;;;;;8.57;7.47;;;1.20;52.90;;;;;;5024650;28;20197;-89
2022/03/07 08:01:14;;;;;;;7.90;7.20;;;1.30;52.10;;;;;;5007351;28;20281;-89
2022/03/07 08:03:40;;;;;;;7.53;6.77;;;1.30;51.90;;;;;;5006531;28;20206;-88
2022/03/07 08:06:06;;;;;;;7.83;7.03;;;1.30;52.20;;;;;;5018473;28;20653;-89
2022/03/07 08:08:32;;;;;;;7.60;6.83;;;1.40;51.70;;;;;;5018358;28;20236;-89
2022/03/07 08:10:57;;;;;;;7.80;6.93;;;1.50;51.90;;;;;;5023298;28;20213;-89
2022/03/07 08:13:23;;;;;;;8.20;7.40;;;1.60;51.10;;;;;;5021631;28;20209;-89
2022/03/07 08:15:49;;;;;;;8.17;6.70;;;1.70;51.30;;;;;;5019703;28;20193;-89
2022/03/07 08:18:16;;;;;;;8.23;7.00;;;1.70;50.00;;;;;;5027942;28;20272;-89
2022/03/07 08:20:42;;;;;;;9.27;7.70;;;1.60;50.30;;;;;;5022438;28;20202;-89
2022/03/07 08:23:08;;;;;;;8.67;7.87;;;1.60;50.30;;;;;;5022678;28;20200;-88
2022/03/07 08:25:33;;;;;;;9.97;8.43;;;1.70;50.10;;;;;;5024650;28;20585;-88
2022/03/07 08:28:00;;;;;;;8.40;7.40;;;1.70;50.10;;;;;;5006430;28;20201;-89
2022/03/07 08:30:28;;;;;;;9.43;7.50;;;1.70;49.90;;;;;;5023698;28;20218;-88
2022/03/07 08:32:54;;;;;;;8.60;7.80;;;1.90;50.30;;;;;;5024880;28;20264;-89
2022/03/07 08:35:21;;;;;;;10.10;8.43;;;1.90;49.40;;;;;;5014537;28;20593;-89
2022/03/07 08:37:48;;;;;;;8.47;7.43;;;2.00;48.90;;;;;;5025287;28;20234;-88
2022/03/07 08:40:17;;;;;;;9.10;7.77;;;2.00;49.30;;;;;;5035376;28;20221;-87
2022/03/07 08:42:44;;;;;;;10.63;8.47;;;2.10;49.10;;;;;;5028436;28;20224;-88
2022/03/07 08:45:10;;;;;;;10.43;8.23;;;2.00;49.10;;;;;;5021406;28;20248;-88
2022/03/07 08:47:38;;;;;;;9.83;8.47;;;2.00;48.90;;;;;;5025912;28;20209;-89
2022/03/07 08:50:06;;;;;;;8.90;8.00;;;2.00;49.10;;;;;;5023256;28;20217;-88
2022/03/07 08:52:32;;;;;;;9.07;8.17;;;2.10;48.60;;;;;;5022024;28;20196;-88
2022/03/07 08:54:58;;;;;;;10.00;8.30;;;2.20;48.80;;;;;;5004893;28;20229;-89
2022/03/07 08:57:23;;;;;;;12.03;8.27;;;2.20;49.50;;;;;;5018728;28;20664;-88
2022/03/07 08:59:49;;;;;;;10.03;8.87;;;2.30;48.60;;;;;;5028571;28;20224;-88
2022/03/07 09:02:15;;;;;;;10.37;9.37;;;2.40;48.80;;;;;;5023231;28;20281;-88
2022/03/07 09:04:41;;;;;;;9.77;8.67;;;2.40;48.70;;;;;;5021822;28;20564;-89
2022/03/07 09:07:07;;;;;;;10.73;9.20;;;2.40;48.30;;;;;;5002645;28;20267;-88
2022/03/07 09:09:33;;;;;;;13.33;8.73;;;2.50;48.20;;;;;;5026562;28;20178;-88
2022/03/07 09:11:59;;;;;;;9.77;8.73;;;2.50;48.10;;;;;;5029031;28;20228;-88
2022/03/07 09:14:25;;;;;;;10.00;9.00;;;2.70;48.20;;;;;;5009056;28;20233;-88
2022/03/07 09:16:51;;;;;;;12.37;11.13;;;2.80;47.60;;;;;;5010011;28;20285;-88
2022/03/07 09:19:17;;;;;;;10.13;9.13;;;3.00;47.30;;;;;;5027542;28;20660;-89
2022/03/07 09:21:43;;;;;;;9.87;8.50;;;2.80;47.80;;;;;;5021090;28;20200;-89
2022/03/07 09:24:08;;;;;;;10.43;9.20;;;2.90;47.70;;;;;;5027926;28;20245;-88
2022/03/07 09:26:34;;;;;;;13.37;9.30;;;3.00;47.10;;;;;;5021283;28;20202;-88
2022/03/07 09:29:00;;;;;;;9.40;8.43;;;3.10;46.70;;;;;;5023419;28;20630;-88
2022/03/07 09:31:27;;;;;;;9.87;8.87;;;3.20;46.60;;;;;;5038196;28;20221;-88
2022/03/07 09:33:52;;;;;;;10.07;9.07;;;3.20;46.20;;;;;;5026887;28;20293;-88
2022/03/07 09:36:18;;;;;;;11.10;9.07;;;3.30;46.00;;;;;;5020392;28;20285;-88
2022/03/07 09:38:44;;;;;;;11.03;9.57;;;3.40;44.90;;;;;;5015945;28;20265;-87
2022/03/07 09:41:11;;;;;;;11.47;10.13;;;3.60;44.80;;;;;;5016877;28;20711;-88
2022/03/07 09:43:37;;;;;;;11.90;9.63;;;3.60;44.40;;;;;;5016759;28;20565;-88
2022/03/07 09:46:03;;;;;;;10.00;8.97;;;3.90;45.20;;;;;;5033444;28;20236;-88
2022/03/07 09:48:30;;;;;;;12.47;9.17;;;4.10;43.60;;;;;;5018270;28;20197;-88
2022/03/07 09:50:56;;;;;;;12.70;9.83;;;4.30;43.00;;;;;;5026067;28;20206;-88
2022/03/07 09:53:23;;;;;;;10.93;9.53;;;4.30;42.50;;;;;;5025221;28;20229;-88
2022/03/07 09:55:48;;;;;;;10.50;9.40;;;4.50;42.00;;;;;;5033118;28;20197;-88
2022/03/07 09:58:15;;;;;;;10.37;9.30;;;4.60;42.30;;;;;;5022658;28;20277;-88
2022/03/07 10:00:42;;;;;;;9.87;8.87;;;4.70;41.30;;;;;;5025562;28;20229;-88
2022/03/07 10:03:10;;;;;;;9.77;8.87;;;4.90;41.10;;;;;;5026110;28;20201;-88
2022/03/07 10:05:46;;;;;;;11.20;9.77;;;5.10;40.00;;;;;;5025364;28;20207;-88
2022/03/07 10:08:25;;;;;;;10.93;9.17;;;5.00;40.10;;;;;;5029984;28;20268;-87
2022/03/07 10:10:52;;;;;;;10.30;9.30;;;5.00;40.40;;;;;;5025660;28;20272;-88
2022/03/07 10:13:20;;;;;;;10.57;9.50;;;4.70;41.00;;;;;;5026930;28;20224;-89
2022/03/07 10:16:03;;;;;;;11.07;9.87;;;4.50;40.70;;;;;;5025932;28;20324;-88
2022/03/07 10:18:30;;;;;;;11.30;10.20;;;4.30;41.60;;;;;;5024539;28;20400;-88
2022/03/07 10:21:01;;;;;;;12.67;10.30;;;4.20;41.70;;;;;;5019912;28;20215;-88
2022/03/07 10:23:28;;;;;;;10.57;9.50;;;4.40;41.20;;;;;;5019315;28;20198;-88
2022/03/07 10:26:15;;;;;;;12.30;11.00;;;4.40;41.10;;;;;;5025249;28;20703;-88
2022/03/07 10:28:41;;;;;;;14.87;11.73;;;4.30;41.70;;;;;;5025550;28;20197;-88
2022/03/07 10:31:18;;;;;;;19.33;11.53;;;4.20;42.30;;;;;;5023330;28;20692;-88
2022/03/07 10:33:45;;;;;;;11.77;10.67;;;4.60;41.70;;;;;;5013448;28;20305;-88
2022/03/07 10:36:11;;;;;;;14.27;10.17;;;5.00;40.40;;;;;;5027041;28;20186;-88
2022/03/07 10:38:37;;;;;;;12.60;11.30;;;5.30;39.90;;;;;;5027390;28;20189;-88
2022/03/07 10:41:04;;;;;;;13.50;11.30;;;5.70;38.70;;;;;;5027332;28;20696;-89
2022/03/07 10:43:30;;;;;;;10.37;9.37;;;5.90;38.30;;;;;;5026055;28;20277;-89
2022/03/07 10:45:59;;;;;;;12.43;10.17;;;5.60;37.80;;;;;;5020974;28;20202;-88
2022/03/07 10:48:27;;;;;;;11.47;10.30;;;5.30;37.80;;;;;;5014160;28;20193;-87
2022/03/07 10:50:57;;;;;;;10.03;9.13;;;5.10;38.60;;;;;;5025540;28;20281;-89
2022/03/07 10:53:23;;;;;;;10.30;9.30;;;5.00;38.50;;;;;;5029198;28;20225;-88
2022/03/07 10:55:57;;;;;;;10.43;9.43;;;4.80;38.70;;;;;;5025240;28;20693;-89
2022/03/07 10:58:24;;;;;;;10.37;9.37;;;4.60;39.00;;;;;;5021552;28;20177;-88
2022/03/07 11:00:59;;;;;;;11.67;10.47;;;4.40;38.80;;;;;;5028585;28;20206;-89
2022/03/07 11:03:28;;;;;;;10.13;9.13;;;4.40;39.00;;;;;;5028343;28;20200;-91
2022/03/07 11:05:55;;;;;;;10.53;9.53;;;4.30;39.10;;;;;;5027364;28;20186;-88
2022/03/07 11:08:21;;;;;;;11.30;9.87;;;4.40;39.10;;;;;;5031833;28;20198;-89
2022/03/07 11:10:49;;;;;;;11.03;9.93;;;4.70;39.30;;;;;;5022641;28;20281;-90
2022/03/07 11:13:16;;;;;;;11.13;10.03;;;5.10;39.40;;;;;;5024551;28;20217;-90
2022/03/07 11:15:44;;;;;;;13.10;9.70;;;5.60;38.60;;;;;;5026710;28;20552;-90
2022/03/07 11:18:12;;;;;;;14.03;11.27;;;5.70;37.10;;;;;;5024602;28;20204;-89
2022/03/07 11:20:41;;;;;;;10.97;9.83;;;5.60;37.40;;;;;;5013639;28;20591;-89
2022/03/07 11:23:10;;;;;;;9.60;8.70;;;5.80;37.50;;;;;;5018267;28;20541;-89
2022/03/07 11:25:37;;;;;;;12.30;9.87;;;5.80;36.30;;;;;;5017833;28;20241;-90
2022/03/07 11:28:04;;;;;;;10.73;9.67;;;5.50;36.90;;;;;;5026639;28;20200;-89
2022/03/07 11:30:39;;;;;;;10.03;9.13;;;5.20;37.20;;;;;;5018994;28;20232;-89
2022/03/07 11:33:15;;;;;;;10.13;9.17;;;5.40;36.90;;;;;;5030216;28;20173;-89
2022/03/07 11:35:44;;;;;;;9.67;8.50;;;5.70;37.60;;;;;;5017884;28;20186;-88
2022/03/07 11:38:35;;;;;;;10.67;9.03;;;6.00;36.50;;;;;;5024812;28;20284;-89
2022/03/07 11:41:12;;;;;;;10.90;9.80;;;6.30;35.90;;;;;;5007038;28;20313;-89
2022/03/07 11:44:03;;;;;;;14.47;9.53;;;6.60;35.60;;;;;;5019580;28;20196;-88
2022/03/07 11:46:35;;;;;;;9.93;9.03;;;6.80;34.40;;;;;;5021400;28;20205;-89
2022/03/07 11:49:03;;;;;;;10.63;9.60;;;7.00;34.30;;;;;;5022383;28;20271;-89
2022/03/07 11:51:31;;;;;;;10.93;9.83;;;7.10;34.30;;;;;;5021977;28;20223;-89
2022/03/07 11:53:57;;;;;;;10.60;9.60;;;6.90;34.50;;;;;;5016650;28;20271;-90
2022/03/07 11:56:34;;;;;;;12.03;10.10;;;7.30;34.00;;;;;;5020866;28;20249;-89
2022/03/07 11:59:02;;;;;;;12.57;10.97;;;7.40;33.50;;;;;;5021729;28;20197;-89
2022/03/07 12:01:31;;;;;;;11.10;10.10;;;7.40;33.30;;;;;;5021685;28;20251;-89
2022/03/07 12:04:09;;;;;;;11.00;9.97;;;7.40;33.50;;;;;;5018744;28;20212;-90
2022/03/07 12:06:46;;;;;;;11.33;10.23;;;7.90;33.10;;;;;;5024553;28;20185;-89
2022/03/07 12:09:27;;;;;;;10.57;9.47;;;7.80;32.10;;;;;;5022883;28;20201;-90
2022/03/07 12:12:06;;;;;;;10.47;9.57;;;8.00;33.20;;;;;;5022347;28;20190;-89
2022/03/07 12:14:38;;;;;;;10.20;9.20;;;8.40;32.00;;;;;;5018768;28;20673;-89
2022/03/07 12:17:26;;;;;;;12.50;11.40;;;8.70;32.60;;;;;;5019685;28;20560;-89
2022/03/07 12:19:58;;;;;;;10.63;9.63;;;9.00;31.50;;;;;;5019456;28;20193;-89
2022/03/07 12:22:29;;;;;;;11.27;10.03;;;9.10;31.90;;;;;;5018544;28;20208;-89
2022/03/07 12:25:02;;;;;;;11.00;10.00;;;9.10;30.30;;;;;;5017794;28;20196;-90
2022/03/07 12:27:33;;;;;;;14.90;11.77;;;8.50;31.40;;;;;;5021131;28;20201;-89
2022/03/07 12:30:00;;;;;;;11.07;9.90;;;8.60;32.10;;;;;;5018282;28;20205;-90
2022/03/07 12:32:25;;;;;;;11.70;10.60;;;8.80;31.50;;;;;;5025549;28;20644;-89
2022/03/07 12:34:51;;;;;;;10.27;9.37;;;9.30;31.20;;;;;;5024463;28;20215;-90
2022/03/07 12:37:20;;;;;;;14.30;12.90;;;9.50;30.20;;;;;;5025329;28;20196;-89
2022/03/07 12:39:54;;;;;;;12.23;11.07;;;9.20;30.00;;;;;;5026677;28;20221;-90
2022/03/07 12:42:25;;;;;;;13.03;11.67;;;9.10;30.30;;;;;;5026204;28;20252;-89
2022/03/07 12:44:52;;;;;;;11.60;10.50;;;9.50;30.20;;;;;;5025763;28;20190;-89
2022/03/07 12:47:28;;;;;;;10.83;9.90;;;9.60;29.90;;;;;;5014603;28;20197;-89
2022/03/07 12:49:54;;;;;;;11.73;10.63;;;9.30;29.90;;;;;;5025960;28;20292;-89
2022/03/07 12:52:31;;;;;;;10.87;9.43;;;9.20;30.20;;;;;;5023925;28;20271;-89